createdAt,value
2019-02-04T00:00:57.784Z,19.77
2019-02-04T00:03:29.111Z,15.33
2019-02-04T00:05:59.468Z,18.33
2019-02-04T00:08:31.831Z,16.80
2019-02-04T00:11:02.584Z,21.30
2019-02-04T00:13:33.204Z,16.33
2019-02-04T00:16:04.051Z,16.93
2019-02-04T00:18:35.524Z,18.97
2019-02-04T00:21:18.112Z,19.47
2019-02-04T00:23:48.933Z,19.43
2019-02-04T00:26:20.145Z,17.97
2019-02-04T00:28:51.825Z,18.30
2019-02-04T00:31:22.842Z,17.63
2019-02-04T00:33:53.616Z,20.20
2019-02-04T00:36:38.618Z,17.07
2019-02-04T00:39:11.360Z,15.47
2019-02-04T00:42:06.483Z,17.40
2019-02-04T00:44:37.842Z,19.23
2019-02-04T00:47:08.246Z,17.70
2019-02-04T00:49:39.639Z,18.90
2019-02-04T00:52:10.247Z,17.10
2019-02-04T00:54:41.654Z,18.23
2019-02-04T00:57:12.407Z,18.50
2019-02-04T00:59:43.736Z,17.23
2019-02-04T01:02:14.543Z,15.93
2019-02-04T01:04:45.382Z,18.80
2019-02-04T01:07:16.396Z,17.33
2019-02-04T01:09:47.422Z,17.03
2019-02-04T01:12:17.813Z,16.73
2019-02-04T01:14:49.320Z,20.57
2019-02-04T01:17:19.647Z,16.97
2019-02-04T01:19:51.092Z,19.17
2019-02-04T01:22:22.090Z,16.47
2019-02-04T01:24:53.028Z,17.53
2019-02-04T01:27:24.190Z,16.67
2019-02-04T01:29:54.912Z,18.93
2019-02-04T01:32:25.870Z,16.10
2019-02-04T01:34:56.666Z,16.40
2019-02-04T01:37:27.707Z,15.73
2019-02-04T01:39:59.392Z,18.60
2019-02-04T01:42:30.733Z,21.97
2019-02-04T01:45:02.010Z,17.43
2019-02-04T01:47:32.622Z,15.30
2019-02-04T01:50:03.769Z,15.70
2019-02-04T01:52:35.133Z,18.77
2019-02-04T01:55:07.544Z,18.27
2019-02-04T01:57:38.240Z,15.47
2019-02-04T02:00:20.749Z,16.17
2019-02-04T03:02:05.747Z,29.23
2019-02-04T03:04:36.834Z,27.87
2019-02-04T03:07:07.792Z,20.87
2019-02-04T03:09:38.561Z,23.80
2019-02-04T03:12:10.399Z,25.73
2019-02-04T03:14:42.030Z,17.93
2019-02-04T03:17:13.053Z,18.90
2019-02-04T03:19:48.932Z,16.30
2019-02-04T03:22:21.118Z,17.30
2019-02-04T03:24:52.128Z,17.97
2019-02-04T03:27:23.229Z,16.10
2019-02-04T03:29:54.595Z,16.60
2019-02-04T03:32:25.222Z,19.60
2019-02-04T03:34:56.964Z,16.87
2019-02-04T03:37:27.272Z,15.77
2019-02-04T03:39:59.478Z,15.77
2019-02-04T03:42:30.488Z,14.97
2019-02-04T03:45:01.189Z,17.57
2019-02-04T03:47:32.500Z,18.40
2019-02-04T03:50:03.573Z,20.43
2019-02-04T03:52:34.614Z,16.40
2019-02-04T03:55:05.597Z,15.97
2019-02-04T03:57:36.590Z,17.37
2019-02-04T04:00:14.015Z,15.30
2019-02-04T04:02:45.436Z,15.20
2019-02-04T04:05:16.452Z,14.93
2019-02-04T04:07:47.391Z,18.57
2019-02-04T04:10:18.671Z,19.73
2019-02-04T04:12:49.796Z,20.70
2019-02-04T04:15:20.714Z,17.63
2019-02-04T04:17:51.558Z,17.43
2019-02-04T04:20:23.268Z,19.73
2019-02-04T04:22:54.817Z,17.03
2019-02-04T04:25:25.947Z,19.60
2019-02-04T04:27:57.238Z,15.70
2019-02-04T04:30:28.607Z,19.57
2019-02-04T04:32:59.892Z,19.07
2019-02-04T04:35:31.171Z,16.40
2019-02-04T04:38:02.131Z,16.80
2019-02-04T04:40:33.524Z,20.30
2019-02-04T04:43:04.958Z,19.13
2019-02-04T04:45:37.412Z,22.00
2019-02-04T04:48:09.070Z,20.53
2019-02-04T04:50:40.405Z,21.60
2019-02-04T04:53:11.434Z,20.10
2019-02-04T04:55:42.094Z,23.37
2019-02-04T04:58:12.854Z,26.70
2019-02-04T05:00:43.647Z,23.73
2019-02-04T05:03:14.355Z,26.97
2019-02-04T05:05:45.345Z,24.93
2019-02-04T05:08:16.087Z,26.47
2019-02-04T05:10:47.221Z,70.50
2019-02-04T05:13:18.618Z,85.77
2019-02-04T05:15:56.070Z,43.50
2019-02-04T05:18:37.471Z,23.57
2019-02-04T05:20:59.505Z,41.37
2019-02-04T05:23:30.321Z,51.77
2019-02-04T05:26:00.972Z,26.13
2019-02-04T05:28:32.744Z,33.73
2019-02-04T05:31:04.815Z,48.97
2019-02-04T05:33:36.480Z,27.63
2019-02-04T05:36:07.154Z,24.63
2019-02-04T05:38:37.868Z,26.80
2019-02-04T05:41:08.881Z,31.37
2019-02-04T05:43:39.510Z,39.33
2019-02-04T05:46:27.548Z,73.63
2019-02-04T05:48:58.631Z,66.47
2019-02-04T05:51:29.968Z,77.40
2019-02-04T05:54:06.041Z,44.53
2019-02-04T05:56:37.507Z,32.23
2019-02-04T05:59:08.107Z,47.17
2019-02-04T06:01:39.319Z,40.67
2019-02-04T06:04:25.666Z,51.80
2019-02-04T06:06:57.573Z,29.33
2019-02-04T06:09:28.625Z,55.43
2019-02-04T06:11:59.637Z,41.67
2019-02-04T06:14:30.389Z,15.50
2019-02-04T06:17:39.275Z,38.87
2019-02-04T06:20:13.793Z,35.67
2019-02-04T06:22:45.245Z,33.10
2019-02-04T06:25:16.118Z,21.00
2019-02-04T06:27:46.938Z,16.87
2019-02-04T06:30:17.945Z,35.17
2019-02-04T06:32:49.399Z,29.00
2019-02-04T06:35:21.590Z,26.87
2019-02-04T06:37:52.473Z,34.60
2019-02-04T06:40:23.473Z,47.20
2019-02-04T06:42:55.199Z,26.13
2019-02-04T06:45:25.985Z,38.87
2019-02-04T06:47:57.300Z,45.17
2019-02-04T06:50:28.524Z,51.73
2019-02-04T06:52:59.589Z,32.67
2019-02-04T06:55:33.435Z,39.13
2019-02-04T06:58:05.030Z,36.13
2019-02-04T07:00:35.648Z,34.80
2019-02-04T07:03:06.585Z,58.07
2019-02-04T07:05:43.973Z,55.43
2019-02-04T07:08:10.318Z,46.20
2019-02-04T07:10:45.279Z,34.80
2019-02-04T07:13:15.920Z,23.10
2019-02-04T07:15:46.939Z,24.27
2019-02-04T07:18:18.490Z,21.10
2019-02-04T07:20:49.862Z,23.30
2019-02-04T07:23:20.861Z,27.27
2019-02-04T07:25:51.186Z,36.13
2019-02-04T07:28:22.430Z,27.47
2019-02-04T07:30:52.752Z,25.93
2019-02-04T07:33:24.511Z,21.90
2019-02-04T07:35:55.160Z,44.07
2019-02-04T07:38:26.542Z,33.50
2019-02-04T07:40:57.169Z,30.20
2019-02-04T07:43:28.641Z,24.27
2019-02-04T07:45:59.454Z,32.13
2019-02-04T07:48:29.796Z,40.37
2019-02-04T07:51:01.053Z,38.03
2019-02-04T07:53:31.380Z,49.53
2019-02-04T07:56:04.182Z,49.37
2019-02-04T07:58:35.225Z,18.87
2019-02-04T08:01:06.239Z,26.97
2019-02-04T08:03:36.567Z,24.47
2019-02-04T08:06:07.235Z,26.67
2019-02-04T08:08:38.263Z,33.57
2019-02-04T08:11:08.643Z,35.40
2019-02-04T08:13:40.002Z,24.90
2019-02-04T08:16:13.333Z,34.53
2019-02-04T08:18:46.162Z,31.13
2019-02-04T08:21:17.274Z,42.63
2019-02-04T08:23:48.322Z,32.77
2019-02-04T08:26:20.056Z,22.77
2019-02-04T08:28:51.334Z,26.87
2019-02-04T08:31:23.180Z,23.77
2019-02-04T08:33:54.622Z,23.00
2019-02-04T08:36:27.204Z,14.93
2019-02-04T08:38:58.388Z,12.43
2019-02-04T08:41:29.869Z,14.00
2019-02-04T08:44:00.928Z,15.37
2019-02-04T08:46:31.691Z,13.80
2019-02-04T08:49:02.870Z,15.63
2019-02-04T08:51:34.706Z,14.03
2019-02-04T08:54:05.925Z,12.63
2019-02-04T08:56:37.078Z,14.97
2019-02-04T08:59:08.957Z,16.00
2019-02-04T09:01:39.978Z,21.40
2019-02-04T09:04:10.673Z,16.77
2019-02-04T09:06:41.021Z,15.47
2019-02-04T09:09:13.536Z,15.20
2019-02-04T09:11:44.647Z,13.67
2019-02-04T09:14:16.105Z,14.07
2019-02-04T09:16:47.650Z,15.37
2019-02-04T09:19:18.066Z,13.97
2019-02-04T09:21:49.530Z,11.50
2019-02-04T09:24:20.834Z,14.13
2019-02-04T09:26:51.159Z,13.77
2019-02-04T09:29:22.586Z,15.63
2019-02-04T09:31:53.258Z,14.10
2019-02-04T09:34:23.907Z,13.00
2019-02-04T09:36:54.567Z,13.73
2019-02-04T09:39:26.827Z,13.37
2019-02-04T09:41:57.936Z,13.33
2019-02-04T09:44:28.981Z,15.40
2019-02-04T09:47:01.457Z,16.87
2019-02-04T09:49:32.899Z,16.27
2019-02-04T09:52:03.491Z,16.67
2019-02-04T09:54:34.201Z,13.53
2019-02-04T09:57:05.280Z,16.90
2019-02-04T09:59:35.939Z,15.37
2019-02-04T10:02:07.016Z,15.63
2019-02-04T10:04:39.355Z,15.63
2019-02-04T10:07:10.046Z,16.40
2019-02-04T10:09:40.999Z,16.47
2019-02-04T10:12:11.665Z,20.93
2019-02-04T10:14:42.728Z,17.30
2019-02-04T10:17:14.985Z,18.17
2019-02-04T10:19:48.132Z,18.07
2019-02-04T10:22:19.824Z,19.97
2019-02-04T10:24:51.175Z,18.50
2019-02-04T10:27:22.576Z,17.20
2019-02-04T10:29:56.077Z,18.10
2019-02-04T10:32:26.845Z,16.40
2019-02-04T10:34:58.327Z,17.17
2019-02-04T10:37:29.024Z,19.17
2019-02-04T10:40:00.272Z,19.30
2019-02-04T10:42:31.431Z,17.67
2019-02-04T10:45:02.195Z,18.87
2019-02-04T10:47:32.912Z,18.10
2019-02-04T10:50:03.754Z,17.73
2019-02-04T10:52:34.347Z,15.17
2019-02-04T10:55:06.274Z,20.07
2019-02-04T10:57:40.591Z,18.03
2019-02-04T11:00:14.112Z,18.43
2019-02-04T11:02:44.988Z,18.80
2019-02-04T11:05:20.210Z,17.33
2019-02-04T11:07:50.989Z,16.17
2019-02-04T11:10:25.047Z,16.90
2019-02-04T11:12:56.089Z,15.53
2019-02-04T11:15:27.442Z,17.40
2019-02-04T11:17:58.822Z,18.13
2019-02-04T11:20:31.529Z,17.27
2019-02-04T11:23:03.186Z,15.90
2019-02-04T11:25:33.932Z,15.93
2019-02-04T11:28:06.028Z,15.80
2019-02-04T11:31:11.503Z,18.13
2019-02-04T11:33:42.825Z,16.80
2019-02-04T11:36:14.018Z,15.63
2019-02-04T11:38:45.545Z,18.03
2019-02-04T11:41:16.180Z,16.63
2019-02-04T11:43:47.208Z,16.77
2019-02-04T11:46:18.468Z,16.90
2019-02-04T11:49:05.073Z,17.03
2019-02-04T11:51:36.343Z,16.17
2019-02-04T11:54:07.691Z,18.87
2019-02-04T11:56:38.767Z,14.83
2019-02-04T11:59:09.505Z,12.77
2019-02-04T12:01:40.445Z,15.10
2019-02-04T12:04:11.584Z,17.37
2019-02-04T12:06:42.323Z,16.63
2019-02-04T12:09:13.997Z,15.57
2019-02-04T12:11:44.613Z,15.17
2019-02-04T12:14:14.975Z,13.40
2019-02-04T12:16:45.678Z,11.80
2019-02-04T12:19:15.997Z,14.83
2019-02-04T12:21:47.419Z,16.40
2019-02-04T12:24:18.498Z,20.67
2019-02-04T12:26:49.919Z,15.70
2019-02-04T12:29:20.323Z,14.23
2019-02-04T12:31:51.295Z,14.13
2019-02-04T12:34:22.918Z,12.90
2019-02-04T12:37:01.077Z,10.87
2019-02-04T12:39:31.843Z,12.30
2019-02-04T12:42:02.824Z,12.93
2019-02-04T12:44:33.904Z,14.57
2019-02-04T12:47:43.609Z,15.60
2019-02-04T12:50:14.307Z,12.23
2019-02-04T12:52:44.908Z,13.10
2019-02-04T12:55:19.763Z,11.97
2019-02-04T12:57:51.083Z,11.23
2019-02-04T13:00:25.419Z,12.83
2019-02-04T13:02:56.091Z,14.27
2019-02-04T13:05:36.565Z,12.37
2019-02-04T13:08:09.600Z,12.50
2019-02-04T13:10:41.536Z,10.43
2019-02-04T13:13:15.552Z,14.43
2019-02-04T13:15:46.973Z,14.20
2019-02-04T13:18:18.320Z,13.67
2019-02-04T13:20:52.811Z,13.60
2019-02-04T13:23:24.299Z,14.83
2019-02-04T13:25:56.578Z,13.70
2019-02-04T13:28:28.338Z,14.23
2019-02-04T13:31:06.341Z,12.60
2019-02-04T13:33:37.262Z,12.00
2019-02-04T13:36:07.883Z,13.67
2019-02-04T13:38:38.926Z,15.30
2019-02-04T13:41:11.175Z,13.87
2019-02-04T13:43:42.316Z,13.00
2019-02-04T13:46:13.271Z,13.63
2019-02-04T13:48:44.209Z,11.87
2019-02-04T13:51:15.261Z,12.20
2019-02-04T13:53:46.514Z,11.33
2019-02-04T13:56:17.770Z,10.87
2019-02-04T13:58:48.228Z,12.73
2019-02-04T14:01:21.144Z,12.73
2019-02-04T14:03:52.726Z,10.20
2019-02-04T14:06:23.784Z,12.37
2019-02-04T14:08:55.421Z,10.50
2019-02-04T14:11:26.176Z,12.17
2019-02-04T14:13:56.984Z,10.10
2019-02-04T14:16:27.957Z,11.60
2019-02-04T14:18:58.687Z,11.77
2019-02-04T14:21:29.824Z,10.97
2019-02-04T14:24:00.723Z,13.67
2019-02-04T14:27:08.782Z,12.60
2019-02-04T14:29:39.841Z,11.10
2019-02-04T14:32:11.267Z,11.43
2019-02-04T14:34:42.599Z,11.30
2019-02-04T14:37:13.495Z,11.80
2019-02-04T14:39:44.551Z,11.87
2019-02-04T14:42:18.441Z,12.80
2019-02-04T14:45:34.572Z,13.73
2019-02-04T14:49:05.609Z,12.73
2019-02-04T14:52:30.546Z,12.10
2019-02-04T14:55:59.522Z,13.37
2019-02-04T14:59:24.333Z,14.53
2019-02-04T15:03:00.905Z,14.33
2019-02-04T15:06:28.571Z,13.40
2019-02-04T15:09:40.977Z,13.63
2019-02-04T15:13:08.503Z,12.03
2019-02-04T15:16:40.633Z,14.57
2019-02-04T15:20:25.496Z,12.43
2019-02-04T15:23:32.168Z,13.23
2019-02-04T15:27:09.285Z,13.17
2019-02-04T15:30:47.019Z,12.60
2019-02-04T15:34:32.792Z,14.30
2019-02-04T15:37:31.185Z,16.00
2019-02-04T15:40:26.349Z,13.57
2019-02-04T15:43:39.673Z,15.10
2019-02-04T15:46:58.264Z,17.10
2019-02-04T15:50:19.295Z,22.00
2019-02-04T15:52:50.018Z,16.80
2019-02-04T15:55:23.490Z,14.73
2019-02-04T15:57:55.259Z,13.60
2019-02-04T16:00:31.579Z,14.07
2019-02-04T16:03:03.050Z,16.93
2019-02-04T16:05:35.540Z,15.60
2019-02-04T16:08:06.637Z,13.33
2019-02-04T16:10:39.025Z,13.93
2019-02-04T16:13:09.725Z,14.13
2019-02-04T16:15:50.417Z,15.10
2019-02-04T16:18:21.532Z,13.03
2019-02-04T16:20:52.824Z,13.97
2019-02-04T16:23:32.460Z,17.73
2019-02-04T16:26:03.910Z,13.47
2019-02-04T16:28:34.969Z,13.83
2019-02-04T16:31:06.248Z,15.43
2019-02-04T16:33:36.878Z,12.63
2019-02-04T16:36:08.184Z,14.40
2019-02-04T16:38:39.634Z,13.53
2019-02-04T16:41:10.013Z,15.80
2019-02-04T16:43:41.997Z,14.13
2019-02-04T16:46:12.905Z,16.00
2019-02-04T16:48:43.889Z,13.77
2019-02-04T16:51:14.938Z,13.27
2019-02-04T16:53:46.437Z,16.37
2019-02-04T16:56:18.796Z,14.07
2019-02-04T16:58:49.822Z,13.27
2019-02-04T17:01:32.761Z,14.37
2019-02-04T17:04:03.836Z,12.70
2019-02-04T17:06:34.837Z,14.20
2019-02-04T17:09:08.558Z,14.37
2019-02-04T17:11:39.924Z,15.87
2019-02-04T17:14:11.230Z,12.80
2019-02-04T17:16:42.597Z,16.60
2019-02-04T17:19:12.900Z,14.20
2019-02-04T17:21:43.630Z,13.93
2019-02-04T17:24:14.666Z,13.43
2019-02-04T17:26:45.980Z,14.87
2019-02-04T17:29:17.224Z,14.53
2019-02-04T17:31:48.193Z,15.33
2019-02-04T17:34:19.290Z,14.47
2019-02-04T17:36:50.632Z,12.60
2019-02-04T17:39:21.725Z,16.70
2019-02-04T17:41:53.083Z,14.87
2019-02-04T17:44:24.454Z,16.70
2019-02-04T17:46:55.264Z,18.20
2019-02-04T17:49:25.569Z,14.60
2019-02-04T17:51:56.666Z,17.33
2019-02-04T17:54:27.953Z,18.23
2019-02-04T17:56:58.911Z,16.13
2019-02-04T17:59:30.054Z,14.67
2019-02-04T18:02:00.814Z,15.20
2019-02-04T18:04:32.303Z,12.70
2019-02-04T18:07:03.157Z,16.10
2019-02-04T18:09:33.812Z,14.37
2019-02-04T18:12:04.849Z,18.23
2019-02-04T18:14:36.216Z,16.03
2019-02-04T18:17:07.472Z,13.47
2019-02-04T18:19:38.468Z,14.93
2019-02-04T18:22:10.328Z,15.33
2019-02-04T18:24:41.381Z,16.07
2019-02-04T18:27:13.226Z,15.53
2019-02-04T18:29:44.090Z,16.47
2019-02-04T18:32:15.018Z,16.80
2019-02-04T18:34:47.581Z,14.83
2019-02-04T18:37:19.047Z,16.90
2019-02-04T18:39:50.036Z,15.60
2019-02-04T18:42:22.241Z,15.70
2019-02-04T18:44:53.746Z,17.10
2019-02-04T18:47:24.389Z,15.63
2019-02-04T18:49:55.435Z,16.53
2019-02-04T18:52:26.831Z,17.50
2019-02-04T18:54:58.186Z,14.30
2019-02-04T18:57:28.982Z,15.47
2019-02-04T18:59:59.345Z,16.20
2019-02-04T19:02:29.709Z,21.93
2019-02-04T19:05:00.688Z,18.60
2019-02-04T19:07:30.987Z,14.60
2019-02-04T19:10:02.120Z,14.57
2019-02-04T19:12:33.147Z,15.27
2019-02-04T19:15:04.558Z,14.87
2019-02-04T19:17:36.314Z,16.90
2019-02-04T19:20:10.819Z,18.10
2019-02-04T19:22:42.105Z,20.53
2019-02-04T19:25:13.255Z,16.90
2019-02-04T19:27:44.241Z,19.13
2019-02-04T19:30:46.126Z,18.83
2019-02-04T19:33:17.563Z,16.17
2019-02-04T19:35:49.717Z,17.27
2019-02-04T19:38:20.899Z,17.33
2019-02-04T19:40:51.963Z,16.63
2019-02-04T19:43:23.375Z,19.07
2019-02-04T19:45:54.118Z,19.60
2019-02-04T19:48:26.529Z,24.77
2019-02-04T19:50:58.287Z,31.13
2019-02-04T19:53:54.589Z,26.20
2019-02-04T19:56:25.431Z,23.13
2019-02-04T19:59:00.587Z,17.60
2019-02-04T20:01:50.644Z,17.03
2019-02-04T20:04:21.788Z,18.40
2019-02-04T20:06:57.562Z,16.93
2019-02-04T20:09:30.946Z,19.27
2019-02-04T20:12:02.391Z,16.87
2019-02-04T20:14:37.939Z,16.33
2019-02-04T20:17:08.271Z,16.97
2019-02-04T20:19:40.030Z,16.40
2019-02-04T20:22:16.457Z,18.87
2019-02-04T20:24:48.446Z,19.10
2019-02-04T20:27:21.182Z,18.30
2019-02-04T20:29:52.254Z,16.77
2019-02-04T20:32:32.636Z,17.97
2019-02-04T20:35:12.053Z,16.47
2019-02-04T20:37:45.675Z,19.10
2019-02-04T20:40:21.081Z,18.53
2019-02-04T20:42:55.540Z,17.17
2019-02-04T20:45:35.273Z,18.47
2019-02-04T20:48:17.481Z,16.97
2019-02-04T20:51:00.037Z,14.27
2019-02-04T20:53:37.107Z,16.00
2019-02-04T20:56:13.232Z,18.07
2019-02-04T20:58:50.089Z,16.43
2019-02-04T21:01:27.226Z,17.27
2019-02-04T21:03:59.921Z,17.60
2019-02-04T21:06:36.222Z,18.17
2019-02-04T21:09:11.416Z,16.63
2019-02-04T21:11:43.530Z,19.00
2019-02-04T21:14:14.461Z,16.63
2019-02-04T21:16:55.807Z,19.13
2019-02-04T21:19:44.295Z,16.37
2019-02-04T21:22:15.765Z,17.53
2019-02-04T21:24:56.301Z,16.63
2019-02-04T21:27:24.793Z,16.37
2019-02-04T21:29:57.613Z,18.17
2019-02-04T21:32:40.429Z,17.97
2019-02-04T21:35:15.556Z,18.20
2019-02-04T21:37:52.952Z,18.07
2019-02-04T21:40:27.478Z,20.90
2019-02-04T21:43:08.252Z,15.60
2019-02-04T21:45:44.481Z,19.87
2019-02-04T21:48:29.130Z,19.20
2019-02-04T21:51:04.782Z,18.83
2019-02-04T21:53:37.755Z,21.47
2019-02-04T21:56:09.322Z,21.30
2019-02-04T21:58:45.338Z,18.73
2019-02-04T22:01:24.038Z,21.40
2019-02-04T22:03:58.394Z,21.00
2019-02-04T22:06:36.203Z,24.33
2019-02-04T22:09:13.918Z,21.20
2019-02-04T22:11:45.462Z,23.20
2019-02-04T22:14:28.192Z,22.23
2019-02-04T22:17:06.192Z,21.83
2019-02-04T22:19:51.378Z,22.90
2019-02-04T22:22:31.515Z,23.93
2019-02-04T22:25:19.843Z,23.03
2019-02-04T22:27:53.164Z,20.60
2019-02-04T22:30:28.738Z,20.57
2019-02-04T22:33:10.184Z,18.93
2019-02-04T22:35:47.333Z,19.90
2019-02-04T22:38:21.261Z,20.87
2019-02-04T22:40:52.088Z,23.20
2019-02-04T22:43:24.965Z,21.80
2019-02-04T22:46:02.500Z,20.97
2019-02-04T22:48:36.061Z,20.87
2019-02-04T22:51:09.020Z,21.77
2019-02-04T22:53:40.474Z,21.70
2019-02-04T22:56:12.399Z,23.23
2019-02-04T22:58:43.817Z,24.93
2019-02-04T23:01:47.305Z,22.73
2019-02-04T23:04:18.363Z,22.27
2019-02-04T23:06:49.984Z,22.17
2019-02-04T23:09:21.132Z,22.43
2019-02-04T23:11:52.200Z,23.23
2019-02-04T23:14:24.054Z,25.47
2019-02-04T23:17:12.750Z,21.57
2019-02-04T23:20:00.509Z,25.30
2019-02-04T23:22:32.905Z,19.10
2019-02-04T23:25:04.000Z,22.43
2019-02-04T23:27:35.168Z,21.20
2019-02-04T23:30:11.392Z,19.43
2019-02-04T23:32:44.183Z,19.17
2019-02-04T23:35:16.119Z,18.87
2019-02-04T23:38:04.859Z,18.13
2019-02-04T23:40:35.632Z,22.50
2019-02-04T23:43:06.894Z,23.60
2019-02-04T23:45:37.924Z,21.93
2019-02-04T23:48:10.706Z,20.73
2019-02-04T23:50:41.602Z,22.93
2019-02-04T23:53:12.375Z,20.13
2019-02-04T23:55:54.407Z,22.77
2019-02-04T23:58:16.909Z,21.93
